Flugplatz Rostock-Laage Airport

Bericht für ETNL

vom 21.07. um 21:20 UTC

Wind 5 kt aus 300°

Sichtweite 10 km oder mehr

gering bewölkt in 31000 ft

Temperatur 15.0°C

Taupunkt 13.0°C

Luftfeuchtigkeit 88%

Luftdruck 1021 hPa

ETNL 212120Z 30005KT 9999 FEW310 15/13 Q1021 BLU+

Prognose für ETNL

vom 21.07. um 00:00 UTC

Am 21.07. zwischen 00:00 UTC und 00:00 UTC

Wind 15 kt aus 290° in Böen 25 kt

Sichtweite 10 km oder mehr

keine signifikanten Wettererscheinungen

gering bewölkt in 4000 ft


Am 21.07. zwischen 00:00 und 00:00 UTC übergehend zu

Wind 5 kt aus 280°

Sichtweite 10 km oder mehr

keine signifikanten Wettererscheinungen

gering bewölkt in 4000 ft


Zwischen 00:00 UTC und 00:00 UTC mit einer Wahrscheinlichkeit von 30%

variable Windrichtung mit 2 kt

Sichtweite 3000 m

flacher Bodennebel

aufgelockert bewölkt in 23000 ft

TAF ETNL 211600Z 2118/2205 29015G25KT 9999 NSW FEW040 BECMG 2118/2120 28005KT 9999 NSW FEW040 PROB30 2202/2205 VRB02KT 3000 MIFG SCT230 BY ETGL
Impressum